Time;durP1;ratioP1;P1;durP2;ratioP2;P2;SDS_P1;SDS_P2;PMS_P1;PMS_P2;Temp;Humidity;BMP_temperature;BMP_pressure;BME280_temperature;BME280_humidity;BME280_pressure;Samples;Min_cycle;Max_cycle;Signal;HPM_P1;HPM_P2
2023/12/07 00:02:02;;;;;;;5.93;5.37;;;;;;;2.18;100.00;99290.09;5059316;28;20249;-81
2023/12/07 00:04:31;;;;;;;6.20;5.60;;;;;;;2.08;100.00;99297.41;5060100;28;20227;-82
2023/12/07 00:07:02;;;;;;;5.83;5.33;;;;;;;2.05;100.00;99296.94;5079060;28;20236;-81
2023/12/07 00:09:29;;;;;;;6.57;5.97;;;;;;;1.99;100.00;99292.34;5079542;28;20192;-83
2023/12/07 00:11:56;;;;;;;6.20;5.60;;;;;;;2.06;100.00;99288.81;5086550;28;20235;-80
2023/12/07 00:14:26;;;;;;;7.03;5.73;;;;;;;2.00;100.00;99296.63;5092279;28;20225;-80
2023/12/07 00:16:54;;;;;;;6.23;5.63;;;;;;;1.99;100.00;99298.44;5070569;28;20200;-80
2023/12/07 00:19:21;;;;;;;6.77;6.17;;;;;;;1.94;100.00;99297.31;5072345;28;20215;-79
2023/12/07 00:21:50;;;;;;;5.70;5.20;;;;;;;1.94;100.00;99303.44;5076801;28;20196;-81
2023/12/07 00:24:17;;;;;;;6.23;5.63;;;;;;;1.98;100.00;99303.91;5086823;28;20187;-80
2023/12/07 00:26:43;;;;;;;5.90;5.40;;;;;;;1.96;100.00;99297.97;5065417;28;20219;-80
2023/12/07 00:29:10;;;;;;;6.27;5.67;;;;;;;1.90;100.00;99298.66;5073957;28;20192;-80
2023/12/07 00:31:41;;;;;;;6.10;5.60;;;;;;;1.94;100.00;99303.44;5059647;28;20246;-80
2023/12/07 00:34:09;;;;;;;6.67;5.97;;;;;;;1.94;100.00;99303.44;5075635;28;20200;-79
2023/12/07 00:36:40;;;;;;;6.43;5.83;;;;;;;1.95;100.00;99310.38;5092307;28;20208;-81
2023/12/07 00:39:08;;;;;;;6.33;5.73;;;;;;;1.89;100.00;99310.22;5067366;28;20192;-80
2023/12/07 00:41:38;;;;;;;6.23;5.67;;;;;;;1.86;100.00;99306.13;5100590;28;20249;-78
2023/12/07 00:44:12;;;;;;;5.83;5.30;;;;;;;1.85;100.00;99312.38;5060903;28;20219;-81
2023/12/07 00:46:39;;;;;;;6.00;5.47;;;;;;;1.91;100.00;99308.25;5095901;28;20354;-82
2023/12/07 00:49:07;;;;;;;6.00;5.40;;;;;;;1.94;100.00;99318.44;5088605;28;20246;-79
2023/12/07 00:51:34;;;;;;;5.97;5.37;;;;;;;1.95;100.00;99315.66;5062437;28;20211;-79
2023/12/07 00:54:01;;;;;;;6.50;5.90;;;;;;;1.88;100.00;99314.69;5084640;28;20204;-82
2023/12/07 00:56:30;;;;;;;6.60;6.00;;;;;;;1.81;100.00;99319.00;5075446;28;20197;-79
2023/12/07 00:58:57;;;;;;;6.20;5.60;;;;;;;1.78;100.00;99328.09;5076979;28;20199;-80
2023/12/07 01:01:28;;;;;;;6.13;5.53;;;;;;;1.88;100.00;99319.97;5093224;28;20203;-81
2023/12/07 01:03:56;;;;;;;6.47;5.87;;;;;;;1.82;100.00;99331.19;5097757;28;20188;-82
2023/12/07 01:06:31;;;;;;;5.83;5.33;;;;;;;1.92;100.00;99326.53;5090326;28;20287;-80
2023/12/07 01:08:59;;;;;;;5.90;5.30;;;;;;;1.93;100.00;99312.34;5077872;28;20245;-80
2023/12/07 01:11:27;;;;;;;5.90;5.40;;;;;;;2.01;100.00;99325.50;5084808;28;20219;-83
2023/12/07 01:13:54;;;;;;;6.10;5.50;;;;;;;1.94;100.00;99329.84;5082139;28;20200;-80
2023/12/07 01:16:21;;;;;;;5.93;5.43;;;;;;;1.92;100.00;99315.16;5094577;28;20204;-81
2023/12/07 01:18:48;;;;;;;5.40;4.90;;;;;;;1.93;100.00;99324.72;5107525;28;20263;-79
2023/12/07 01:21:16;;;;;;;5.50;5.00;;;;;;;2.01;100.00;99329.97;5062397;28;20196;-81
2023/12/07 01:23:46;;;;;;;5.50;5.00;;;;;;;2.02;100.00;99321.06;5087659;28;20253;-80
2023/12/07 01:26:26;;;;;;;5.77;5.27;;;;;;;2.09;100.00;99328.13;5072706;28;20665;-80
2023/12/07 01:28:56;;;;;;;5.50;5.00;;;;;;;2.14;100.00;99336.38;5084837;28;20223;-81
2023/12/07 01:31:23;;;;;;;5.97;5.40;;;;;;;2.10;100.00;99342.97;5086806;28;20283;-81
2023/12/07 01:33:51;;;;;;;5.40;4.90;;;;;;;2.14;100.00;99335.53;5061673;28;20200;-80
2023/12/07 01:36:18;;;;;;;5.63;5.13;;;;;;;2.04;100.00;99334.94;5109700;28;20206;-81
2023/12/07 01:38:45;;;;;;;5.13;4.73;;;;;;;2.05;100.00;99350.59;5080205;28;20232;-79
2023/12/07 01:41:14;;;;;;;5.77;5.20;;;;;;;2.18;100.00;99353.53;5082427;28;20691;-80
2023/12/07 01:43:47;;;;;;;5.57;5.07;;;;;;;2.13;100.00;99336.53;5088913;28;20192;-83
2023/12/07 01:46:16;;;;;;;5.47;4.97;;;;;;;2.19;100.00;99331.34;5086710;28;20211;-83
2023/12/07 01:48:44;;;;;;;6.00;5.40;;;;;;;2.25;100.00;99345.72;5103831;28;20285;-80
2023/12/07 01:51:14;;;;;;;5.80;5.30;;;;;;;2.23;100.00;99350.38;5064295;28;20208;-81
2023/12/07 01:53:42;;;;;;;6.10;5.60;;;;;;;2.15;100.00;99348.56;5093843;28;20285;-80
2023/12/07 01:56:12;;;;;;;5.80;5.30;;;;;;;2.20;100.00;99345.41;5083878;28;20387;-80
2023/12/07 01:58:40;;;;;;;5.97;5.40;;;;;;;2.18;100.00;99342.97;5088616;28;20259;-79
2023/12/07 02:01:12;;;;;;;5.50;5.00;;;;;;;2.19;100.00;99346.44;5092999;28;20196;-80
2023/12/07 02:03:41;;;;;;;5.80;5.30;;;;;;;2.12;100.00;99353.38;5103913;28;20191;-80
2023/12/07 02:06:13;;;;;;;6.20;5.60;;;;;;;2.06;100.00;99352.25;5106075;28;20195;-79
2023/12/07 02:08:41;;;;;;;5.80;5.30;;;;;;;2.01;100.00;99349.28;5093606;28;20220;-80
2023/12/07 02:11:09;;;;;;;6.20;5.60;;;;;;;2.16;100.00;99350.22;5081037;28;20208;-81
2023/12/07 02:13:42;;;;;;;5.93;5.43;;;;;;;2.05;100.00;99334.72;5104585;28;20288;-78
2023/12/07 02:16:15;;;;;;;5.83;5.23;;;;;;;2.08;100.00;99342.34;5104015;28;20223;-79
2023/12/07 02:18:57;;;;;;;6.30;5.70;;;;;;;2.17;100.00;99333.38;5109319;28;20198;-79
2023/12/07 02:21:34;;;;;;;6.03;5.50;;;;;;;2.07;100.00;99345.13;5092098;28;20710;-80
2023/12/07 02:24:02;;;;;;;6.37;5.77;;;;;;;2.01;100.00;99338.72;5088239;28;20195;-80
2023/12/07 02:26:53;;;;;;;6.57;5.97;;;;;;;2.12;100.00;99346.28;5103637;28;20262;-81
2023/12/07 02:29:20;;;;;;;6.30;5.70;;;;;;;2.14;100.00;99346.13;5100941;28;20216;-80
2023/12/07 02:31:46;;;;;;;6.07;5.47;;;;;;;2.27;100.00;99350.84;5100505;28;20195;-82
2023/12/07 02:34:14;;;;;;;6.27;5.67;;;;;;;2.24;100.00;99359.91;5099781;28;20192;-80
2023/12/07 02:36:51;;;;;;;6.30;5.70;;;;;;;2.30;100.00;99355.75;5106709;28;20206;-79
2023/12/07 02:39:18;;;;;;;6.63;6.03;;;;;;;2.24;100.00;99359.13;5112930;28;20216;-79
2023/12/07 02:41:46;;;;;;;6.63;6.03;;;;;;;2.17;100.00;99359.81;5107105;28;20608;-80
2023/12/07 02:44:13;;;;;;;6.70;6.10;;;;;;;2.19;100.00;99357.78;5106966;28;20207;-80
2023/12/07 02:46:39;;;;;;;6.27;5.67;;;;;;;2.17;100.00;99349.22;5101511;28;20328;-80
2023/12/07 02:49:06;;;;;;;6.80;6.10;;;;;;;2.16;100.00;99357.31;5095592;28;20238;-80
2023/12/07 02:51:33;;;;;;;7.40;6.70;;;;;;;2.13;100.00;99365.59;5105307;28;20184;-79
2023/12/07 02:54:00;;;;;;;6.80;6.20;;;;;;;2.17;100.00;99362.44;5087063;28;20206;-80
2023/12/07 02:56:26;;;;;;;6.90;6.20;;;;;;;2.09;100.00;99353.72;5113903;28;20191;-80
2023/12/07 02:58:53;;;;;;;6.77;6.17;;;;;;;2.07;100.00;99364.47;5097889;28;20230;-81
2023/12/07 03:01:25;;;;;;;6.47;5.87;;;;;;;2.09;100.00;99359.84;5099515;28;20204;-81
2023/12/07 03:03:52;;;;;;;7.37;6.67;;;;;;;2.11;100.00;99370.22;5101664;28;20260;-78
2023/12/07 03:06:21;;;;;;;6.57;5.97;;;;;;;2.19;100.00;99373.66;5096818;28;20211;-78
2023/12/07 03:08:47;;;;;;;6.40;5.80;;;;;;;2.20;100.00;99374.47;5097016;28;20691;-80
2023/12/07 03:11:16;;;;;;;6.70;6.10;;;;;;;2.12;100.00;99383.28;5107145;28;20227;-80
2023/12/07 03:13:45;;;;;;;6.77;6.17;;;;;;;2.10;100.00;99379.97;5076330;28;21537;-79
2023/12/07 03:16:13;;;;;;;6.80;6.20;;;;;;;2.13;100.00;99384.94;5093537;28;20216;-80
2023/12/07 03:18:40;;;;;;;6.70;6.10;;;;;;;2.08;100.00;99387.25;5107523;28;20196;-80
2023/12/07 03:21:08;;;;;;;7.17;6.50;;;;;;;2.11;100.00;99380.78;5102709;28;20240;-80
2023/12/07 03:23:38;;;;;;;6.83;6.20;;;;;;;2.17;100.00;99395.97;5093724;28;20194;-83
2023/12/07 03:26:05;;;;;;;6.93;6.33;;;;;;;2.16;100.00;99391.69;5104459;28;20195;-78
2023/12/07 03:28:34;;;;;;;6.97;6.27;;;;;;;2.13;100.00;99400.78;5112030;28;20215;-78
2023/12/07 03:31:03;;;;;;;6.57;5.97;;;;;;;2.08;100.00;99402.28;5096117;28;20202;-80
2023/12/07 03:33:30;;;;;;;6.93;6.33;;;;;;;2.10;100.00;99401.09;5099574;28;20188;-78
2023/12/07 03:35:57;;;;;;;6.83;6.13;;;;;;;2.13;100.00;99406.06;5103790;28;20656;-78
2023/12/07 03:38:23;;;;;;;6.93;6.33;;;;;;;2.16;100.00;99410.19;5093058;28;20188;-80
2023/12/07 03:41:00;;;;;;;7.10;6.50;;;;;;;2.09;100.00;99417.16;5098274;28;20648;-80
2023/12/07 03:43:27;;;;;;;7.20;6.50;;;;;;;2.09;100.00;99417.16;5090078;28;20218;-82
2023/12/07 03:45:54;;;;;;;6.93;6.30;;;;;;;2.07;100.00;99417.31;5103441;28;20623;-78
2023/12/07 03:48:24;;;;;;;7.77;6.97;;;;;;;2.05;100.00;99427.22;5109499;28;20208;-78
2023/12/07 03:50:52;;;;;;;6.57;5.97;;;;;;;2.02;100.00;99426.75;5096909;28;20206;-81
2023/12/07 03:53:19;;;;;;;6.80;6.20;;;;;;;1.98;100.00;99428.91;5099992;28;20235;-80
2023/12/07 03:55:46;;;;;;;6.73;6.13;;;;;;;2.02;100.00;99434.66;5100113;28;20200;-80
2023/12/07 03:58:13;;;;;;;6.50;5.90;;;;;;;2.02;100.00;99424.09;5094141;28;20184;-80
2023/12/07 04:00:43;;;;;;;6.60;6.00;;;;;;;2.02;100.00;99430.22;5090683;28;20199;-79
2023/12/07 04:03:09;;;;;;;6.37;5.77;;;;;;;2.01;100.00;99436.50;5103463;28;20217;-80
2023/12/07 04:05:37;;;;;;;6.87;6.23;;;;;;;1.96;100.00;99438.81;5100165;28;20207;-83
2023/12/07 04:08:05;;;;;;;6.93;6.23;;;;;;;2.02;100.00;99435.50;5104460;28;20225;-80
2023/12/07 04:10:34;;;;;;;6.63;6.03;;;;;;;2.06;100.00;99452.66;5100137;28;20202;-80
2023/12/07 04:13:01;;;;;;;7.20;6.50;;;;;;;1.94;100.00;99450.56;5102660;28;20187;-81
2023/12/07 04:15:28;;;;;;;7.63;6.93;;;;;;;1.86;100.00;99451.41;5107692;28;20195;-80
2023/12/07 04:17:55;;;;;;;7.00;6.30;;;;;;;1.91;100.00;99453.56;5099835;28;20211;-81
2023/12/07 04:20:24;;;;;;;7.57;6.87;;;;;;;1.94;100.00;99443.47;5078915;28;20209;-79
2023/12/07 04:22:52;;;;;;;6.87;6.27;;;;;;;1.90;100.00;99454.53;5104103;28;20188;-80
2023/12/07 04:25:18;;;;;;;7.10;6.40;;;;;;;1.91;100.00;99459.66;5110973;28;20195;-80
2023/12/07 04:27:48;;;;;;;7.33;6.63;;;;;;;1.92;100.00;99466.56;5105382;28;20553;-80
2023/12/07 04:30:15;;;;;;;7.30;6.67;;;;;;;2.00;100.00;99469.22;5101898;28;20273;-81
2023/12/07 04:32:41;;;;;;;8.03;7.23;;;;;;;1.97;100.00;99471.34;5101035;28;20328;-79
2023/12/07 04:35:11;;;;;;;7.77;6.97;;;;;;;1.91;100.00;99472.88;5100203;28;20749;-79
2023/12/07 04:37:38;;;;;;;7.40;6.70;;;;;;;1.97;100.00;99469.53;5108830;28;20196;-79
2023/12/07 04:40:07;;;;;;;8.17;7.23;;;;;;;1.99;100.00;99467.56;5096087;28;20207;-78
2023/12/07 04:42:34;;;;;;;8.13;7.33;;;;;;;1.99;100.00;99469.38;5094747;28;20190;-79
2023/12/07 04:45:01;;;;;;;8.23;7.43;;;;;;;1.91;100.00;99475.50;5104218;28;20276;-82
2023/12/07 04:47:28;;;;;;;8.00;7.20;;;;;;;2.04;100.00;99480.25;5101514;28;20194;-77
2023/12/07 04:49:54;;;;;;;7.87;6.83;;;;;;;2.03;100.00;99479.44;5109471;28;20204;-81
2023/12/07 04:52:21;;;;;;;8.53;7.50;;;;;;;1.97;100.00;99480.09;5102505;28;20223;-79
2023/12/07 04:54:51;;;;;;;8.73;7.83;;;;;;;2.01;100.00;99481.41;5105466;28;20196;-81
2023/12/07 04:57:18;;;;;;;8.37;7.57;;;;;;;2.11;100.00;99483.88;5104969;28;20188;-80
2023/12/07 04:59:48;;;;;;;8.47;7.67;;;;;;;2.00;100.00;99493.00;5092608;28;20216;-80
2023/12/07 05:02:18;;;;;;;8.53;7.67;;;;;;;2.08;100.00;99490.31;5107516;28;20191;-80
2023/12/07 05:04:48;;;;;;;9.03;8.13;;;;;;;2.00;100.00;99494.81;5103322;28;20244;-80
2023/12/07 05:07:21;;;;;;;8.60;7.70;;;;;;;1.99;100.00;99498.44;5107447;28;20206;-78
2023/12/07 05:09:49;;;;;;;8.87;7.97;;;;;;;2.01;100.00;99496.44;5110787;28;20211;-80
2023/12/07 05:12:18;;;;;;;8.70;7.90;;;;;;;1.91;100.00;99507.22;5105060;28;20252;-79
2023/12/07 05:14:45;;;;;;;9.00;8.03;;;;;;;1.96;100.00;99501.44;5107393;28;20659;-80
2023/12/07 05:17:14;;;;;;;8.13;7.33;;;;;;;2.01;100.00;99501.72;5098439;27;20271;-78
2023/12/07 05:19:44;;;;;;;8.27;7.43;;;;;;;1.99;100.00;99509.00;5107292;28;20226;-80
2023/12/07 05:22:13;;;;;;;7.87;7.07;;;;;;;2.00;100.00;99502.75;5104202;28;20237;-80
2023/12/07 05:24:40;;;;;;;8.77;7.80;;;;;;;1.99;100.00;99509.84;5095655;28;20180;-78
2023/12/07 05:27:06;;;;;;;8.30;7.40;;;;;;;2.00;100.00;99506.22;5093459;28;20188;-79
2023/12/07 05:29:34;;;;;;;8.87;7.97;;;;;;;2.00;100.00;99515.94;5096956;28;20220;-79
2023/12/07 05:32:00;;;;;;;8.47;7.57;;;;;;;1.90;100.00;99520.59;5085055;28;20206;-80
2023/12/07 05:34:27;;;;;;;8.40;7.60;;;;;;;1.91;100.00;99535.44;5101500;28;20188;-78
2023/12/07 05:36:55;;;;;;;8.27;7.47;;;;;;;2.02;100.00;99528.00;5099341;28;20192;-78
2023/12/07 05:39:21;;;;;;;8.33;7.53;;;;;;;2.00;100.00;99530.00;5108602;28;20309;-79
2023/12/07 05:41:49;;;;;;;8.40;7.60;;;;;;;1.95;100.00;99534.94;5114816;28;20241;-80
2023/12/07 05:44:21;;;;;;;7.87;7.07;;;;;;;1.98;100.00;99533.78;5108957;28;20196;-80
2023/12/07 05:46:49;;;;;;;8.23;7.43;;;;;;;1.95;100.00;99542.88;5106602;28;20200;-80
2023/12/07 05:49:17;;;;;;;8.30;7.50;;;;;;;2.04;100.00;99541.03;5103697;28;20207;-78
2023/12/07 05:51:46;;;;;;;7.77;7.00;;;;;;;2.05;100.00;99548.00;5091074;28;20235;-78
2023/12/07 05:54:13;;;;;;;8.07;7.27;;;;;;;2.05;100.00;99540.84;5095441;28;20222;-82
2023/12/07 05:56:43;;;;;;;8.13;7.30;;;;;;;2.01;100.00;99546.66;5094322;28;20205;-81
2023/12/07 05:59:10;;;;;;;8.73;7.83;;;;;;;2.02;100.00;99546.50;5093034;28;20219;-78
2023/12/07 06:01:37;;;;;;;8.17;7.30;;;;;;;2.04;100.00;99557.72;5088152;28;20189;-79
2023/12/07 06:04:12;;;;;;;7.90;6.87;;;;;;;2.05;100.00;99556.72;5107455;28;20278;-79
2023/12/07 06:06:40;;;;;;;8.03;7.10;;;;;;;2.02;100.00;99550.94;5085948;28;20261;-81
2023/12/07 06:09:07;;;;;;;8.10;7.30;;;;;;;2.01;100.00;99558.03;5097200;28;20280;-78
2023/12/07 06:11:37;;;;;;;8.83;7.63;;;;;;;2.03;100.00;99556.06;5088892;28;20231;-79
2023/12/07 06:14:06;;;;;;;8.40;7.60;;;;;;;2.01;100.00;99549.28;5095527;28;20199;-79
2023/12/07 06:16:33;;;;;;;8.77;7.87;;;;;;;2.04;100.00;99567.47;5097312;28;20198;-79
2023/12/07 06:18:59;;;;;;;8.70;7.80;;;;;;;2.02;100.00;99564.16;5105516;28;20196;-81
2023/12/07 06:21:30;;;;;;;8.50;7.60;;;;;;;2.06;100.00;99570.75;5096320;28;20265;-78
2023/12/07 06:24:00;;;;;;;8.97;8.07;;;;;;;2.07;100.00;99569.78;5095189;28;20299;-78
2023/12/07 06:26:27;;;;;;;9.27;8.37;;;;;;;2.05;100.00;99577.84;5094388;28;20215;-79
2023/12/07 06:28:54;;;;;;;9.17;8.27;;;;;;;1.92;100.00;99571.44;5104216;28;20272;-78
2023/12/07 06:31:21;;;;;;;9.70;8.70;;;;;;;1.90;100.00;99570.78;5113941;28;20188;-79
2023/12/07 06:33:48;;;;;;;10.00;9.00;;;;;;;1.93;100.00;99575.72;5114027;28;20191;-79
2023/12/07 06:36:20;;;;;;;10.70;8.80;;;;;;;1.96;100.00;99570.13;5105300;28;20195;-78
2023/12/07 06:38:47;;;;;;;9.70;8.70;;;;;;;2.03;100.00;99585.16;5112692;28;20191;-78
2023/12/07 06:41:15;;;;;;;9.50;8.50;;;;;;;1.96;100.00;99585.97;5110330;28;20210;-77
2023/12/07 06:43:43;;;;;;;9.93;8.70;;;;;;;1.98;100.00;99579.53;5098514;28;20287;-79
2023/12/07 06:46:13;;;;;;;11.07;8.47;;;;;;;2.07;100.00;99588.28;5110171;28;20191;-77
2023/12/07 06:48:41;;;;;;;9.40;8.40;;;;;;;2.04;100.00;99599.19;5108477;28;20230;-79
2023/12/07 06:51:10;;;;;;;9.53;8.53;;;;;;;2.05;100.00;99593.72;5113434;28;20232;-78
2023/12/07 06:53:37;;;;;;;9.40;8.40;;;;;;;2.00;100.00;99601.34;5107157;28;20239;-78
2023/12/07 06:56:04;;;;;;;9.20;8.23;;;;;;;2.05;100.00;99606.94;5113199;28;20199;-79
2023/12/07 06:58:34;;;;;;;9.73;8.40;;;;;;;2.06;100.00;99607.75;5110230;28;20244;-77
2023/12/07 07:01:01;;;;;;;9.20;8.30;;;;;;;2.06;100.00;99610.41;5113493;28;20187;-77
2023/12/07 07:03:31;;;;;;;8.97;8.07;;;;;;;2.09;100.00;99608.28;5086882;28;20211;-77
2023/12/07 07:05:59;;;;;;;9.33;8.37;;;;;;;2.18;100.00;99607.28;5113256;28;20191;-77
2023/12/07 07:08:26;;;;;;;9.23;8.23;;;;;;;2.09;100.00;99618.00;5107176;28;20256;-79
2023/12/07 07:10:53;;;;;;;9.57;8.57;;;;;;;2.07;100.00;99620.81;5098250;28;20215;-78
2023/12/07 07:13:20;;;;;;;9.70;8.27;;;;;;;2.21;100.00;99627.25;5109972;28;20199;-78
2023/12/07 07:15:51;;;;;;;9.47;8.47;;;;;;;2.13;100.00;99627.25;5110226;28;20184;-78
2023/12/07 07:18:25;;;;;;;9.10;8.20;;;;;;;2.16;100.00;99624.28;5107379;28;20266;-79
2023/12/07 07:20:52;;;;;;;8.70;7.90;;;;;;;2.17;100.00;99612.72;5109331;28;20188;-78
2023/12/07 07:23:18;;;;;;;9.17;8.27;;;;;;;2.19;100.00;99616.84;5107796;28;20191;-76
2023/12/07 07:25:48;;;;;;;10.37;8.40;;;;;;;2.22;100.00;99620.97;5109456;28;20199;-77
2023/12/07 07:28:16;;;;;;;9.33;8.20;;;;;;;2.27;100.00;99623.94;5112403;28;20207;-79
2023/12/07 07:30:45;;;;;;;9.10;8.20;;;;;;;2.26;100.00;99626.75;5101671;28;20211;-78
2023/12/07 07:33:25;;;;;;;9.13;8.23;;;;;;;2.21;100.00;99633.38;5101987;28;20267;-77
2023/12/07 07:35:52;;;;;;;9.00;8.13;;;;;;;2.31;100.00;99632.38;5101792;28;20183;-78
2023/12/07 07:38:21;;;;;;;9.57;8.57;;;;;;;2.26;100.00;99643.44;5100597;28;20613;-77
2023/12/07 07:40:48;;;;;;;9.07;8.17;;;;;;;2.28;100.00;99630.06;5105972;28;20196;-76
2023/12/07 07:43:15;;;;;;;9.40;8.33;;;;;;;2.24;100.00;99642.75;5105913;28;20273;-77
2023/12/07 07:45:42;;;;;;;8.77;7.87;;;;;;;2.38;100.00;99636.81;5103279;28;20223;-76
2023/12/07 07:48:14;;;;;;;8.97;8.10;;;;;;;2.37;100.00;99637.81;5097043;28;20187;-76
2023/12/07 07:50:41;;;;;;;9.40;8.00;;;;;;;2.43;100.00;99637.13;5108619;28;20283;-76
2023/12/07 07:53:09;;;;;;;9.30;8.30;;;;;;;2.36;100.00;99641.47;5104156;28;20227;-78
2023/12/07 07:55:39;;;;;;;8.47;7.67;;;;;;;2.41;100.00;99651.53;5099694;28;20229;-77
2023/12/07 07:58:08;;;;;;;9.00;8.10;;;;;;;2.39;100.00;99656.16;5101787;28;20199;-77
2023/12/07 08:00:36;;;;;;;9.50;7.87;;;;;;;2.33;100.00;99652.38;5096220;28;20192;-78
2023/12/07 08:03:05;;;;;;;9.87;8.33;;;;;;;2.40;100.00;99655.16;5093630;28;20226;-77
2023/12/07 08:05:34;;;;;;;8.73;7.83;;;;;;;2.57;100.00;99657.63;5105057;28;20191;-76
2023/12/07 08:08:00;;;;;;;8.43;7.50;;;;;;;2.62;100.00;99654.47;5100501;28;20200;-81
2023/12/07 08:10:27;;;;;;;8.67;7.77;;;;;;;2.63;100.00;99654.31;5101295;28;20215;-77
2023/12/07 08:12:54;;;;;;;9.10;8.20;;;;;;;2.69;100.00;99649.34;5090268;28;20212;-76
2023/12/07 08:15:21;;;;;;;9.07;8.17;;;;;;;2.62;100.00;99651.81;5098782;28;20215;-77
2023/12/07 08:17:48;;;;;;;10.63;8.83;;;;;;;2.75;100.00;99643.38;5099950;28;20188;-79
2023/12/07 08:20:17;;;;;;;9.47;7.93;;;;;;;2.88;100.00;99651.63;5095398;28;20200;-78
2023/12/07 08:22:44;;;;;;;9.73;8.60;;;;;;;2.86;100.00;99653.59;5099555;28;20224;-76
2023/12/07 08:25:11;;;;;;;9.80;8.57;;;;;;;2.76;100.00;99643.19;5092889;28;20216;-78
2023/12/07 08:27:38;;;;;;;9.87;8.47;;;;;;;2.91;100.00;99645.97;5098538;28;20252;-76
2023/12/07 08:30:06;;;;;;;9.40;8.43;;;;;;;2.96;100.00;99646.28;5106258;28;20219;-78
2023/12/07 08:32:32;;;;;;;9.97;8.97;;;;;;;2.90;100.00;99652.25;5110672;28;20233;-76
2023/12/07 08:34:59;;;;;;;9.77;8.77;;;;;;;2.97;100.00;99655.88;5103297;28;20196;-78
2023/12/07 08:37:26;;;;;;;10.17;9.13;;;;;;;2.98;100.00;99653.06;5098450;28;20233;-78
2023/12/07 08:39:55;;;;;;;10.47;8.70;;;;;;;3.08;100.00;99650.19;5098921;28;20215;-79
2023/12/07 08:42:22;;;;;;;9.67;8.47;;;;;;;3.17;100.00;99641.25;5109117;28;20214;-78
2023/12/07 08:44:48;;;;;;;9.20;8.23;;;;;;;3.20;100.00;99648.03;5111078;28;20203;-77
2023/12/07 08:47:15;;;;;;;8.50;7.57;;;;;;;3.23;100.00;99653.78;5102704;28;20192;-78
2023/12/07 08:49:45;;;;;;;9.17;8.27;;;;;;;3.20;100.00;99658.59;5102212;28;20211;-79
2023/12/07 08:52:12;;;;;;;9.10;8.20;;;;;;;3.28;100.00;99663.88;5104230;28;20273;-78
2023/12/07 08:54:57;;;;;;;9.70;8.67;;;;;;;3.32;100.00;99659.88;5090507;28;20184;-77
2023/12/07 08:57:24;;;;;;;9.10;8.20;;;;;;;3.38;100.00;99665.31;5111332;28;20207;-78
2023/12/07 08:59:51;;;;;;;8.87;7.97;;;;;;;3.32;100.00;99662.53;5097695;28;20204;-80
2023/12/07 09:02:18;;;;;;;11.47;8.03;;;;;;;3.30;100.00;99670.66;5099514;28;20191;-79
2023/12/07 09:05:05;;;;;;;10.00;8.27;;;;;;;3.38;100.00;99662.66;5109670;28;20198;-79
2023/12/07 09:07:34;;;;;;;9.03;8.07;;;;;;;3.41;100.00;99664.97;5097311;28;20254;-78
2023/12/07 09:10:01;;;;;;;8.37;7.43;;;;;;;3.41;100.00;99672.91;5079369;28;20349;-80
2023/12/07 09:12:30;;;;;;;8.17;7.37;;;;;;;3.44;100.00;99663.81;5104366;28;20273;-79
2023/12/07 09:15:07;;;;;;;9.20;8.30;;;;;;;3.61;100.00;99648.63;5107225;28;20239;-81
2023/12/07 09:17:37;;;;;;;9.00;8.10;;;;;;;3.62;100.00;99659.06;5103469;28;20200;-80
2023/12/07 09:20:14;;;;;;;8.53;7.60;;;;;;;3.68;100.00;99652.25;5096073;28;20188;-80
2023/12/07 09:22:48;;;;;;;8.60;7.70;;;;;;;3.69;100.00;99654.72;5102845;28;20659;-80
2023/12/07 09:25:16;;;;;;;8.00;7.20;;;;;;;3.73;100.00;99655.22;5109123;28;20227;-82
2023/12/07 09:27:47;;;;;;;7.17;6.47;;;;;;;3.74;100.00;99670.09;5109424;28;20302;-78
2023/12/07 09:30:14;;;;;;;8.00;7.20;;;;;;;3.82;100.00;99660.28;5102347;28;20594;-78
2023/12/07 09:32:44;;;;;;;6.90;6.20;;;;;;;3.83;100.00;99653.97;5089557;28;20456;-79
2023/12/07 09:35:18;;;;;;;7.57;6.83;;;;;;;3.81;100.00;99653.31;5095352;28;20195;-79
2023/12/07 09:37:49;;;;;;;7.77;6.83;;;;;;;3.81;100.00;99658.63;5113778;28;20195;-77
2023/12/07 09:40:18;;;;;;;8.33;7.00;;;;;;;3.91;100.00;99648.63;5104469;28;20196;-80
2023/12/07 09:42:46;;;;;;;7.90;7.10;;;;;;;3.91;100.00;99653.94;5107129;28;20274;-77
2023/12/07 09:45:16;;;;;;;7.47;6.73;;;;;;;3.81;100.00;99655.97;5078914;28;20204;-80
2023/12/07 09:47:43;;;;;;;8.17;7.37;;;;;;;3.92;100.00;99655.56;5096266;28;20196;-80
2023/12/07 09:50:12;;;;;;;8.10;7.07;;;;;;;3.92;100.00;99658.19;5103128;28;20220;-79
2023/12/07 09:52:39;;;;;;;8.63;7.23;;;;;;;3.83;100.00;99658.44;5082775;28;20254;-79
2023/12/07 09:55:14;;;;;;;9.40;7.63;;;;;;;3.72;100.00;99667.63;5105046;28;20690;-78
2023/12/07 09:57:40;;;;;;;9.07;8.17;;;;;;;3.82;100.00;99651.50;5106070;28;20217;-78
2023/12/07 10:00:10;;;;;;;10.27;8.47;;;;;;;3.74;100.00;99648.88;5107055;28;20271;-83
2023/12/07 10:02:38;;;;;;;8.23;7.40;;;;;;;3.83;100.00;99640.72;5110339;28;20306;-77
2023/12/07 10:05:14;;;;;;;9.10;8.20;;;;;;;3.81;100.00;99644.56;5094037;28;20192;-80
2023/12/07 10:07:41;;;;;;;8.47;7.63;;;;;;;3.92;100.00;99646.78;5107043;28;20203;-79
2023/12/07 10:10:11;;;;;;;8.63;7.83;;;;;;;3.87;100.00;99642.00;5114043;28;20243;-79
2023/12/07 10:12:55;;;;;;;8.13;7.33;;;;;;;3.90;100.00;99646.97;5097707;28;20212;-79
2023/12/07 10:15:26;;;;;;;7.60;6.90;;;;;;;3.88;100.00;99640.19;5096282;28;20287;-79
2023/12/07 10:17:57;;;;;;;7.67;6.87;;;;;;;3.92;100.00;99642.31;5097922;28;20204;-78
2023/12/07 10:20:28;;;;;;;8.93;8.03;;;;;;;3.97;100.00;99637.28;5093645;28;20227;-79
2023/12/07 10:23:07;;;;;;;7.60;6.90;;;;;;;4.08;100.00;99640.53;5098158;28;20191;-79
2023/12/07 10:25:42;;;;;;;8.97;8.07;;;;;;;4.07;100.00;99642.34;5111829;28;20194;-80
2023/12/07 10:28:11;;;;;;;8.73;7.60;;;;;;;4.21;100.00;99644.25;5102280;28;20320;-80
2023/12/07 10:30:43;;;;;;;7.90;7.10;;;;;;;4.21;100.00;99648.72;5083050;28;20218;-79
2023/12/07 10:33:12;;;;;;;9.03;8.13;;;;;;;4.28;100.00;99639.88;5093807;28;20283;-80
2023/12/07 10:35:41;;;;;;;9.13;7.97;;;;;;;4.27;100.00;99646.19;5105825;28;20198;-79
2023/12/07 10:38:12;;;;;;;8.23;7.43;;;;;;;4.22;100.00;99640.59;5078814;28;20226;-79
2023/12/07 10:40:39;;;;;;;9.53;8.10;;;;;;;4.17;100.00;99644.78;5111088;28;20211;-79
2023/12/07 10:43:08;;;;;;;9.93;8.13;;;;;;;4.15;100.00;99649.44;5093304;28;20286;-80
2023/12/07 10:45:37;;;;;;;8.93;8.03;;;;;;;4.21;100.00;99643.41;5103262;28;20211;-79
2023/12/07 10:48:10;;;;;;;8.17;7.37;;;;;;;4.16;100.00;99651.91;5101021;28;20201;-80
2023/12/07 10:50:43;;;;;;;8.70;7.80;;;;;;;4.31;100.00;99657.25;5110720;28;20214;-79
2023/12/07 10:53:19;;;;;;;8.17;7.33;;;;;;;4.26;100.00;99657.78;5100948;28;20228;-79
2023/12/07 10:55:50;;;;;;;7.20;6.50;;;;;;;4.32;100.00;99657.09;5095940;28;20191;-79
2023/12/07 10:58:19;;;;;;;8.30;7.40;;;;;;;4.34;100.00;99656.88;5069703;28;20686;-80
2023/12/07 11:00:48;;;;;;;8.47;7.57;;;;;;;4.25;100.00;99658.78;5105066;28;20651;-80
2023/12/07 11:03:20;;;;;;;7.97;7.17;;;;;;;4.30;100.00;99656.44;5088468;28;20217;-79
2023/12/07 11:05:49;;;;;;;7.07;6.37;;;;;;;4.36;100.00;99654.91;5081328;28;20203;-79
2023/12/07 11:08:27;;;;;;;7.23;6.53;;;;;;;4.37;100.00;99653.91;5108970;28;20184;-81
2023/12/07 11:11:20;;;;;;;7.70;7.00;;;;;;;4.39;100.00;99638.59;5069619;28;20216;-79
2023/12/07 11:14:05;;;;;;;7.30;6.60;;;;;;;4.39;100.00;99651.88;5093055;28;20195;-78
2023/12/07 11:16:36;;;;;;;9.30;8.20;;;;;;;4.43;100.00;99646.03;5084599;28;20271;-80
2023/12/07 11:19:04;;;;;;;9.10;7.87;;;;;;;4.42;100.00;99656.84;5076043;28;20214;-79
2023/12/07 11:21:38;;;;;;;8.60;7.70;;;;;;;4.46;100.00;99644.84;5077563;28;20198;-80
2023/12/07 11:24:07;;;;;;;9.33;8.43;;;;;;;4.37;100.00;99648.59;5107642;28;20283;-79
2023/12/07 11:26:42;;;;;;;8.87;7.97;;;;;;;4.39;100.00;99650.03;5100841;28;20184;-78
2023/12/07 11:29:09;;;;;;;8.57;7.67;;;;;;;4.29;100.00;99657.41;5086250;28;20200;-82
2023/12/07 11:31:39;;;;;;;9.10;8.20;;;;;;;4.27;100.00;99656.78;5066813;28;20246;-79
2023/12/07 11:34:13;;;;;;;9.10;8.27;;;;;;;4.22;100.00;99659.16;5103224;28;20203;-79
2023/12/07 11:36:40;;;;;;;9.87;8.83;;;;;;;4.31;100.00;99652.78;5099446;28;20183;-79
2023/12/07 11:39:07;;;;;;;10.40;9.40;;;;;;;4.34;100.00;99652.41;5092399;28;20188;-79
2023/12/07 11:41:54;;;;;;;8.97;8.07;;;;;;;4.23;100.00;99654.69;5094124;28;20191;-78
2023/12/07 11:44:44;;;;;;;10.13;9.13;;;;;;;4.26;100.00;99657.78;5098141;28;20272;-80